Relevés horaires Beauvechain (Belgique)


Relevés horaires à Beauvechain - Lundi 25 Déc. 2017
Heure UTC1 Température [°C] Vent [km/h] Hum. [%] Pres.4 [hPa] Visi. [Km] Nébu. [octa] Préc.5 [mm] Cond.
2m. Res. Ros. Dir.2 Vit. Moy. Raf.3
23:00 3.5 -0.1 1.4 S 14.8 -- 24.1 86 1006.6(-3.3/3h) 20 -- -- --
22:00 3.5 -0.1 1.6 S 14.8 -- 22.2 87 1008.1(-2.8/3h) 20 -- -- --
21:00 3.5 -0.1 1.6 S 14.8 -- 24.1 87 1008.7(-2.8/3h) 20 -- -- --
20:00 3.9 0.4 1.6 S 14.8 -- 22.2 85 1010(-2.3/3h) 20 -- -- --
19:00 4.3 1.2 1.8 S 13.0 -- 22.2 84 1011(-2.2/3h) 20 -- -- --
18:00 4.3 1.2 2.0 S 13.0 -- 22.2 85 1011.7(-2.5/3h) 20 -- -- --
17:00 4.2 1.1 1.7 S 13.0 -- 22.2 84 1012.3(-2.8/3h) 20 -- -- --
16:00 4.5 1.2 1.8 S 14.8 -- 22.2 83 1013.2(-2.7/3h) 20 -- -- --
15:00 5.0 1.8 2.1 S 14.8 -- 22.2 81 1014.2(-2.8/3h) 20 -- -- --
14:00 5.4 2.6 2.6 SSO 13.0 -- 20.4 82 1015.2(-2.8/3h) 20 -- -- --
13:00 5.5 3 3.1 SSO 11.1 -- 22.2 84 1016(-2.7/3h) 20 -- -- --
12:00 6.2 3.3 2.9 SSO 14.8 -- 24.1 79 1017(-2.0/3h) 20 -- -- --
11:00 6.1 3.1 3.8 SSO 14.8 -- 20.4 85 1018.1(-1.2/3h) 20 -- -- --
10:00 6.6 4 4.2 SSO 13.0 -- 20.4 85 1018.7(-0.9/3h) 17 -- -- --
09:00 6.9 4.7 4.2 SO 11.1 -- 20.4 83 1019(-1.1/3h) 20 -- -- --
08:00 7.0 5.2 4.6 SO 9.3 -- 18.5 85 1019.2(-1.1/3h) 20 -- -- --
07:00 7.1 4.6 5.1 SO 13.0 13.0 18.5 87 1019.6(-1.3/3h) 19 -- -- --
06:00 7.1 5 5.7 SSO 11.1 -- 20.4 91 1020.1(-1.5/3h) 9 -- -- --
05:00 7.9 6.7 4.9 SO 7.4 -- 18.5 81 1020.3(-1.6/3h) 20 -- -- --
04:00 7.8 6.1 5.3 SSO 9.3 -- 16.7 84 1021(-1.2/3h) 20 -- -- --
03:00 7.6 5.9 5.8 SSO 9.3 -- 20.4 88 1021.6(-1.1/3h) 20 -- -- --
02:00 7.9 5.9 5.5 SO 11.1 -- 20.4 85 1022(-1.3/3h) 20 -- -- --
01:00 7.9 5.9 5.5 SO 11.1 -- 18.5 85 1022.2(-1.2/3h) 20 -- -- --
00:00 7.8 5.8 5.7 SO 11.1 -- 20.4 87 1022.7(-1.1/3h) 10 -- -- --

1 Coordinated Universal Time. Actuellement il est 23:00 locale et 21:00 UTC.

2 Le vent souffle depuis la direction indiquée vers la direction oposée.

3 Les rafales max. sont disponible 40 min après l'heure du relevé.

4 Pour les stations d'altitude (plus de 600m) le géopotentiel du niveau le plus proche de la pression obligatoire est indiqué.

5 Les stations disposant d'un diffuseur peuvent indiquer "trace". Cela signifie que des précipitations ont touchés le sol mais que la quantité est inférieure à 0.1 mm.

Récapitulatif de la journée
Température [°C] Vent [km/h] Ensoleillement4 [h] Precipitations totale5 [mm] Pression [Hpa]
Min1 Max.2 Moy.3 Max. Min Max.
7.1 7.3 13 24.1 0 h 0 min 0 1006.6 1022.7

1 Température minimale relevée entre 18:00 UTC la veille et 18:00 UTC le jour donné.

2 Température maximale relevée entre 06:00 UTC le jour donné et 06:00 UTC le lendemain.

3 Vent moyen de la journée basé sur les relevés horaires.

4 Ensoleillement en heures relevé entre 06:00 UTC la veille et 06:00 UTC le jour donné.

5 Précipitations totales tombées entre 06:00 UTC la jour donné et 06:00 UTC le lendemain.

Graphiques horaires